Time;durP1;ratioP1;P1;durP2;ratioP2;P2;SDS_P1;SDS_P2;PMS_P1;PMS_P2;Temp;Humidity;BMP_temperature;BMP_pressure;BME280_temperature;BME280_humidity;BME280_pressure;Samples;Min_cycle;Max_cycle;Signal;HPM_P1;HPM_P2
2023/03/22 00:00:14;;;;;;;6.70;1.45;;;18.50;1.00;;;;;;5034685;28;20415;-36
2023/03/22 00:02:40;;;;;;;8.27;2.10;;;18.40;1.00;;;;;;5033711;28;20099;-36
2023/03/22 00:05:08;;;;;;;10.23;2.35;;;18.40;1.00;;;;;;5034391;28;20129;-36
2023/03/22 00:07:36;;;;;;;10.55;1.67;;;18.40;1.00;;;;;;5016726;28;20041;-36
2023/03/22 00:10:04;;;;;;;9.25;1.85;;;18.40;1.00;;;;;;5034416;28;20041;-36
2023/03/22 00:12:31;;;;;;;9.80;2.35;;;18.30;1.00;;;;;;5033973;28;20045;-37
2023/03/22 00:14:58;;;;;;;9.50;2.10;;;18.30;1.00;;;;;;5033828;28;20476;-36
2023/03/22 00:17:25;;;;;;;9.32;2.42;;;18.30;1.00;;;;;;5034365;28;20049;-36
2023/03/22 00:19:53;;;;;;;9.38;2.35;;;18.30;1.00;;;;;;5034315;28;20512;-36
2023/03/22 00:22:20;;;;;;;11.95;2.03;;;18.30;1.00;;;;;;5033727;28;20504;-36
2023/03/22 00:24:47;;;;;;;11.35;2.25;;;18.20;1.00;;;;;;5033595;28;20073;-37
2023/03/22 00:27:14;;;;;;;15.73;2.10;;;18.20;1.00;;;;;;5033826;28;20045;-36
2023/03/22 00:29:41;;;;;;;6.95;1.40;;;18.20;1.00;;;;;;5016322;28;20045;-37
2023/03/22 00:32:08;;;;;;;9.23;1.73;;;18.20;1.00;;;;;;5034030;28;20407;-35
2023/03/22 00:34:35;;;;;;;10.82;2.55;;;18.10;1.00;;;;;;5033308;28;20091;-35
2023/03/22 00:37:01;;;;;;;8.23;2.20;;;18.10;1.00;;;;;;5016185;28;20408;-35
2023/03/22 00:39:29;;;;;;;10.38;2.10;;;18.10;1.00;;;;;;5033878;28;20033;-37
2023/03/22 00:41:55;;;;;;;7.85;1.60;;;18.10;1.00;;;;;;5033732;28;20377;-35
2023/03/22 00:44:22;;;;;;;12.20;2.05;;;18.00;1.00;;;;;;5032858;28;20432;-36
2023/03/22 00:46:49;;;;;;;5.95;1.30;;;18.00;1.00;;;;;;5015970;28;20385;-35
2023/03/22 00:49:16;;;;;;;5.63;1.80;;;18.00;1.00;;;;;;5015648;28;20493;-35
2023/03/22 00:51:43;;;;;;;15.13;2.95;;;18.00;1.00;;;;;;5033610;28;20045;-36
2023/03/22 00:54:10;;;;;;;8.93;2.60;;;18.00;1.00;;;;;;5014923;28;20049;-36
2023/03/22 00:56:37;;;;;;;6.03;1.42;;;18.00;1.00;;;;;;5015801;28;20037;-36
2023/03/22 00:59:15;;;;;;;9.43;2.38;;;18.00;1.00;;;;;;5015818;28;20076;-36
2023/03/22 01:01:42;;;;;;;10.30;2.28;;;17.90;1.00;;;;;;5015581;28;20519;-36
2023/03/22 01:04:14;;;;;;;9.38;2.55;;;17.90;1.00;;;;;;5032598;28;20045;-36
2023/03/22 01:06:41;;;;;;;11.38;2.30;;;17.90;1.00;;;;;;5015562;28;20057;-37
2023/03/22 01:09:13;;;;;;;8.27;3.05;;;17.90;1.00;;;;;;5033242;28;20481;-36
2023/03/22 01:11:42;;;;;;;7.18;2.05;;;17.80;1.00;;;;;;5015558;28;20041;-36
2023/03/22 01:14:08;;;;;;;8.60;2.00;;;17.80;1.00;;;;;;5032193;28;20053;-36
2023/03/22 01:16:36;;;;;;;12.00;2.65;;;17.80;1.00;;;;;;5033191;28;20033;-36
2023/03/22 01:19:03;;;;;;;10.02;1.55;;;17.80;1.00;;;;;;5015386;28;20053;-36
2023/03/22 01:21:30;;;;;;;6.03;1.70;;;17.80;1.00;;;;;;5015379;28;20088;-36
2023/03/22 01:23:57;;;;;;;6.63;2.30;;;17.80;1.00;;;;;;5014467;28;20055;-36
2023/03/22 01:26:24;;;;;;;5.53;1.80;;;17.70;1.00;;;;;;5015252;28;20112;-36
2023/03/22 01:28:51;;;;;;;6.93;1.70;;;17.70;1.00;;;;;;5014968;28;20050;-36
2023/03/22 01:31:18;;;;;;;8.98;2.08;;;17.70;1.00;;;;;;5015118;28;20049;-36
2023/03/22 01:33:44;;;;;;;6.40;1.40;;;17.70;1.00;;;;;;5032062;28;20041;-36
2023/03/22 01:36:11;;;;;;;9.63;1.80;;;17.70;1.00;;;;;;5015133;28;20049;-36
2023/03/22 01:38:38;;;;;;;7.15;1.73;;;17.70;1.00;;;;;;5014928;28;20049;-36
2023/03/22 01:41:06;;;;;;;12.10;2.20;;;17.60;1.00;;;;;;5032658;28;20088;-36
2023/03/22 01:43:37;;;;;;;12.15;1.45;;;17.60;1.00;;;;;;5014223;28;20459;-36
2023/03/22 01:46:04;;;;;;;6.10;1.70;;;17.60;1.00;;;;;;5014713;28;20049;-35
2023/03/22 01:48:49;;;;;;;12.25;2.22;;;17.60;1.00;;;;;;5032469;28;20093;-36
2023/03/22 01:51:23;;;;;;;8.45;2.92;;;17.60;1.00;;;;;;5014916;28;20104;-37
2023/03/22 01:54:10;;;;;;;7.47;1.45;;;17.60;1.00;;;;;;5014092;28;20041;-36
2023/03/22 01:56:40;;;;;;;8.95;1.88;;;17.60;1.00;;;;;;5014811;28;20057;-36
2023/03/22 01:59:13;;;;;;;7.88;1.63;;;17.60;1.00;;;;;;5014413;28;20049;-36
2023/03/22 02:02:03;;;;;;;6.35;1.73;;;17.60;1.00;;;;;;5024853;28;20045;-36
2023/03/22 02:04:34;;;;;;;14.35;1.70;;;17.50;1.00;;;;;;5026435;28;20469;-36
2023/03/22 02:07:08;;;;;;;9.65;2.00;;;17.50;1.00;;;;;;5023070;28;20041;-36
2023/03/22 02:09:40;;;;;;;9.88;2.00;;;17.50;1.00;;;;;;5046854;28;20040;-36
2023/03/22 02:13:09;;;;;;;6.95;1.40;;;17.50;1.00;;;;;;5028193;28;20131;-36
2023/03/22 02:15:54;;;;;;;8.63;2.28;;;17.50;1.00;;;;;;4990403;28;20044;-36
2023/03/22 02:18:54;;;;;;;5.25;1.80;;;17.50;1.00;;;;;;4980069;28;20051;-36
2023/03/22 02:21:34;;;;;;;8.73;1.67;;;17.40;1.00;;;;;;5024244;28;20048;-36
2023/03/22 02:24:25;;;;;;;7.47;1.88;;;17.40;1.00;;;;;;5033222;28;20056;-36
2023/03/22 02:27:21;;;;;;;5.75;1.13;;;17.40;1.00;;;;;;5034243;28;20279;-37
2023/03/22 02:30:23;;;;;;;6.05;1.25;;;17.40;1.00;;;;;;5034006;28;20045;-36
2023/03/22 02:33:04;;;;;;;8.35;1.98;;;17.40;1.00;;;;;;5033221;28;20052;-36
2023/03/22 02:35:53;;;;;;;10.55;1.60;;;17.40;1.00;;;;;;5033826;28;20049;-36
2023/03/22 02:38:19;;;;;;;7.70;1.45;;;17.30;1.00;;;;;;5017531;28;20064;-36
2023/03/22 02:41:01;;;;;;;6.55;1.88;;;17.40;1.00;;;;;;5051792;28;20045;-36
2023/03/22 02:43:33;;;;;;;8.10;1.58;;;17.30;1.00;;;;;;5033087;28;20444;-36
2023/03/22 02:46:31;;;;;;;5.35;1.15;;;17.30;1.00;;;;;;5033586;28;20114;-36
2023/03/22 02:49:28;;;;;;;5.65;1.80;;;17.30;1.00;;;;;;5028785;28;20480;-36
2023/03/22 02:52:24;;;;;;;3.97;1.48;;;17.30;1.00;;;;;;5034092;28;20041;-36
2023/03/22 02:55:19;;;;;;;7.68;1.30;;;17.30;1.00;;;;;;5014807;28;20131;-36
2023/03/22 02:57:57;;;;;;;6.97;1.75;;;17.20;1.00;;;;;;5051566;28;20411;-36
2023/03/22 03:00:26;;;;;;;10.00;2.17;;;17.20;1.00;;;;;;5033200;28;20532;-36
2023/03/22 03:03:00;;;;;;;9.52;2.40;;;17.20;1.00;;;;;;5050793;28;20041;-35
2023/03/22 03:05:29;;;;;;;8.02;1.33;;;17.10;1.00;;;;;;5051536;28;20061;-35
2023/03/22 03:08:01;;;;;;;5.40;1.25;;;17.10;1.00;;;;;;5033629;28;20045;-35
2023/03/22 03:10:30;;;;;;;;;;;17.10;1.00;;;;;;5034022;28;20455;-35
2023/03/22 03:12:58;;;;;;;6.50;1.23;;;17.10;1.00;;;;;;5050686;28;19925;-35
2023/03/22 03:15:25;;;;;;;5.55;1.38;;;17.10;1.00;;;;;;5033447;28;20076;-35
2023/03/22 03:17:54;;;;;;;8.35;1.23;;;17.10;1.00;;;;;;5051458;28;20568;-35
2023/03/22 03:20:41;;;;;;;10.85;1.42;;;17.10;1.00;;;;;;5037140;28;20044;-36
2023/03/22 03:23:33;;;;;;;3.08;1.15;;;17.00;1.00;;;;;;5036621;28;20087;-36
2023/03/22 03:26:14;;;;;;;7.28;1.65;;;17.00;1.00;;;;;;5055004;28;20389;-36
2023/03/22 03:28:44;;;;;;;5.20;1.95;;;17.00;1.00;;;;;;5037215;28;20051;-36
2023/03/22 03:31:22;;;;;;;9.70;1.67;;;17.00;1.00;;;;;;5055498;28;20173;-37
2023/03/22 03:33:58;;;;;;;6.07;1.40;;;17.00;1.00;;;;;;5036147;28;20060;-36
2023/03/22 03:36:27;;;;;;;4.85;1.95;;;17.00;1.00;;;;;;5055188;28;20400;-36
2023/03/22 03:38:55;;;;;;;3.80;1.27;;;17.00;1.00;;;;;;5037022;28;20140;-37
2023/03/22 03:41:28;;;;;;;7.72;2.42;;;17.00;1.00;;;;;;5054798;28;20516;-36
2023/03/22 03:43:57;;;;;;;4.32;1.30;;;17.00;1.00;;;;;;5053866;28;20489;-42
2023/03/22 03:46:26;;;;;;;6.15;1.40;;;17.00;1.00;;;;;;5088812;22;20049;-35
2023/03/22 03:48:56;;;;;;;5.32;1.75;;;17.00;1.00;;;;;;5054761;28;20055;-35
2023/03/22 03:51:24;;;;;;;4.72;0.95;;;17.00;1.00;;;;;;5053325;28;20045;-35
2023/03/22 03:53:51;;;;;;;4.85;1.42;;;16.90;1.00;;;;;;5069380;28;20045;-35
2023/03/22 03:56:20;;;;;;;6.18;1.75;;;16.90;1.00;;;;;;5053404;28;20071;-35
2023/03/22 03:58:48;;;;;;;12.70;1.75;;;16.90;1.00;;;;;;5069856;28;20467;-35
2023/03/22 04:01:18;;;;;;;7.57;1.83;;;16.90;1.00;;;;;;5053211;28;20064;-35
2023/03/22 04:04:08;;;;;;;4.70;1.27;;;16.90;1.00;;;;;;5048014;28;20060;-35
2023/03/22 04:06:58;;;;;;;4.90;1.13;;;16.90;1.00;;;;;;5054289;28;20060;-35
2023/03/22 04:09:37;;;;;;;6.57;1.15;;;16.90;1.00;;;;;;5069690;28;20072;-35
2023/03/22 04:12:24;;;;;;;6.75;1.50;;;16.90;1.00;;;;;;5053473;28;20079;-35
2023/03/22 04:15:12;;;;;;;9.73;1.67;;;16.90;1.00;;;;;;5053913;28;20516;-35
2023/03/22 04:17:41;;;;;;;6.45;1.60;;;16.90;1.00;;;;;;5053044;28;20051;-35
2023/03/22 04:20:11;;;;;;;7.13;1.83;;;16.80;1.00;;;;;;5069458;28;20102;-35
2023/03/22 04:22:40;;;;;;;6.95;1.48;;;16.80;1.00;;;;;;5068744;28;20041;-35
2023/03/22 04:25:10;;;;;;;6.70;1.30;;;16.80;1.00;;;;;;5052718;28;20128;-35
2023/03/22 04:27:41;;;;;;;5.47;1.63;;;16.80;1.00;;;;;;5069674;28;20147;-35
2023/03/22 04:30:21;;;;;;;9.30;2.50;;;16.80;1.00;;;;;;5068746;28;20073;-35
2023/03/22 04:33:07;;;;;;;9.75;1.63;;;16.80;1.00;;;;;;5053574;28;20048;-35
2023/03/22 04:36:16;;;;;;;3.33;1.05;;;16.80;1.00;;;;;;5011547;28;20046;-35
2023/03/22 04:38:59;;;;;;;3.55;1.10;;;16.80;1.00;;;;;;4995441;28;20046;-35
2023/03/22 04:41:25;;;;;;;6.53;1.40;;;16.70;1.00;;;;;;5037212;28;20107;-35
2023/03/22 04:43:56;;;;;;;6.18;1.63;;;16.70;1.00;;;;;;5051682;28;20152;-35
2023/03/22 04:46:23;;;;;;;7.30;1.73;;;16.80;1.00;;;;;;5068801;28;20055;-35
2023/03/22 04:48:58;;;;;;;9.43;1.98;;;16.70;1.00;;;;;;5068916;28;20530;-34
2023/03/22 04:51:26;;;;;;;8.60;2.42;;;16.70;1.00;;;;;;5052249;28;20558;-35
2023/03/22 04:54:12;;;;;;;3.45;1.83;;;16.70;1.00;;;;;;5051410;28;20045;-35
2023/03/22 04:56:40;;;;;;;5.93;1.30;;;16.70;1.00;;;;;;5052227;28;20041;-35
2023/03/22 04:59:09;;;;;;;4.20;1.10;;;16.70;1.00;;;;;;5052143;28;20048;-35
2023/03/22 05:01:36;;;;;;;5.63;1.58;;;16.70;1.00;;;;;;5053391;28;20056;-35
2023/03/22 05:04:10;;;;;;;7.15;1.58;;;16.60;1.00;;;;;;5051236;28;20098;-35
2023/03/22 05:06:37;;;;;;;12.05;1.98;;;16.60;1.00;;;;;;5053236;28;20087;-35
2023/03/22 05:09:11;;;;;;;7.53;1.73;;;16.60;1.00;;;;;;5069953;28;20072;-35
2023/03/22 05:11:39;;;;;;;5.28;1.83;;;16.60;1.00;;;;;;5075675;28;20491;-35
2023/03/22 05:14:26;;;;;;;5.88;1.95;;;16.60;1.00;;;;;;5071995;28;20140;-35
2023/03/22 05:16:53;;;;;;;7.68;1.80;;;16.60;1.00;;;;;;5071809;28;20052;-35
2023/03/22 05:19:23;;;;;;;6.43;2.08;;;16.60;1.00;;;;;;5071657;28;20044;-35
2023/03/22 05:21:56;;;;;;;5.25;1.83;;;16.60;1.00;;;;;;5070604;28;20048;-35
2023/03/22 05:24:31;;;;;;;4.50;1.25;;;16.50;1.00;;;;;;5076591;28;20044;-35
2023/03/22 05:27:02;;;;;;;7.22;2.13;;;16.50;1.00;;;;;;5080250;28;20060;-35
2023/03/22 05:29:35;;;;;;;7.22;2.25;;;16.60;1.00;;;;;;5079938;28;20496;-35
2023/03/22 05:32:13;;;;;;;5.90;2.03;;;16.50;1.00;;;;;;5088962;28;20047;-35
2023/03/22 05:34:40;;;;;;;19.77;1.90;;;16.50;1.00;;;;;;5072274;28;20048;-35
2023/03/22 05:37:20;;;;;;;6.43;1.58;;;16.50;1.00;;;;;;5082039;28;20559;-35
2023/03/22 05:39:50;;;;;;;11.25;1.92;;;16.50;1.00;;;;;;5074151;28;20055;-35
2023/03/22 05:42:18;;;;;;;8.00;1.67;;;16.50;1.00;;;;;;5089148;28;20044;-35
2023/03/22 05:44:45;;;;;;;6.43;1.90;;;16.50;1.00;;;;;;5089862;28;20109;-35
2023/03/22 05:47:12;;;;;;;8.00;1.60;;;16.50;1.00;;;;;;5090370;28;20097;-35
2023/03/22 05:50:11;;;;;;;5.63;1.90;;;16.50;1.00;;;;;;5084262;28;20040;-35
2023/03/22 05:52:38;;;;;;;12.15;1.80;;;16.50;1.00;;;;;;5078902;28;20161;-35
2023/03/22 05:55:37;;;;;;;7.57;1.67;;;16.50;1.00;;;;;;5054763;28;20064;-35
2023/03/22 05:58:04;;;;;;;14.07;2.10;;;16.50;1.00;;;;;;5074950;28;20499;-35
2023/03/22 06:00:35;;;;;;;8.20;2.05;;;16.40;1.00;;;;;;5076604;28;20090;-35
2023/03/22 06:03:31;;;;;;;5.65;1.67;;;16.50;1.00;;;;;;5078676;28;20453;-35
2023/03/22 06:06:09;;;;;;;7.57;2.30;;;16.40;1.00;;;;;;5083094;28;20048;-35
2023/03/22 06:08:46;;;;;;;16.52;2.22;;;16.40;1.00;;;;;;5089979;28;20098;-35
2023/03/22 06:11:12;;;;;;;10.85;3.05;;;16.40;1.00;;;;;;5089827;28;20052;-35
2023/03/22 06:13:39;;;;;;;6.65;2.38;;;16.40;1.00;;;;;;5089271;28;20040;-35
2023/03/22 06:16:10;;;;;;;7.00;2.00;;;16.40;1.00;;;;;;5089631;28;20130;-35
2023/03/22 06:18:37;;;;;;;9.63;1.95;;;16.40;1.00;;;;;;5090167;28;20068;-35
2023/03/22 06:21:09;;;;;;;11.43;2.45;;;16.40;1.00;;;;;;5090891;28;20040;-35
2023/03/22 06:23:36;;;;;;;8.82;2.88;;;16.40;1.00;;;;;;5090270;28;20046;-35
2023/03/22 06:26:03;;;;;;;11.77;2.08;;;16.40;1.00;;;;;;5090926;28;20036;-35
2023/03/22 06:28:33;;;;;;;9.55;1.90;;;16.40;1.00;;;;;;5090965;28;20130;-35
2023/03/22 06:31:08;;;;;;;4.75;1.55;;;16.40;1.00;;;;;;5090972;28;20071;-35
2023/03/22 06:33:50;;;;;;;11.43;2.20;;;16.40;1.00;;;;;;5090139;28;20036;-34
2023/03/22 06:36:25;;;;;;;10.00;1.50;;;16.30;1.00;;;;;;5090556;28;20040;-34
2023/03/22 06:39:04;;;;;;;9.38;2.40;;;16.30;1.00;;;;;;5090854;28;20056;-34
2023/03/22 06:41:31;;;;;;;9.63;1.90;;;16.30;1.00;;;;;;5090590;28;20568;-34
2023/03/22 06:43:59;;;;;;;3.67;1.45;;;16.30;1.00;;;;;;5091196;28;20085;-35
2023/03/22 06:46:40;;;;;;;5.78;1.92;;;16.30;1.00;;;;;;5090654;28;20078;-34
2023/03/22 06:49:18;;;;;;;7.20;2.03;;;16.30;1.00;;;;;;5074934;28;20071;-34
2023/03/22 06:51:45;;;;;;;6.88;1.38;;;16.30;1.00;;;;;;5073723;28;20048;-34
2023/03/22 06:54:13;;;;;;;8.57;1.80;;;16.30;1.00;;;;;;5093433;28;20061;-34
2023/03/22 06:56:39;;;;;;;5.15;1.52;;;16.30;1.00;;;;;;5094666;28;20059;-34
2023/03/22 06:59:06;;;;;;;9.73;1.85;;;16.30;1.00;;;;;;5094735;28;20071;-33
2023/03/22 07:01:33;;;;;;;8.52;1.42;;;16.30;1.00;;;;;;5094501;28;20040;-34
2023/03/22 07:04:00;;;;;;;6.32;1.90;;;16.30;1.00;;;;;;5093856;28;20036;-34
2023/03/22 07:06:27;;;;;;;6.68;1.35;;;16.30;1.00;;;;;;5094279;28;20086;-34
2023/03/22 07:08:54;;;;;;;10.25;1.65;;;16.20;1.00;;;;;;5095751;28;20062;-34
2023/03/22 07:11:27;;;;;;;7.43;2.00;;;16.30;1.00;;;;;;5094362;28;20048;-34
2023/03/22 07:13:59;;;;;;;8.80;2.17;;;16.20;1.00;;;;;;5093659;28;20131;-34
2023/03/22 07:16:34;;;;;;;6.53;1.85;;;16.20;1.00;;;;;;5094265;28;20092;-34
2023/03/22 07:19:04;;;;;;;9.93;2.17;;;16.20;1.00;;;;;;5094204;28;20052;-34
2023/03/22 07:21:30;;;;;;;7.75;1.83;;;16.20;1.00;;;;;;5095502;28;20687;-33
2023/03/22 07:24:03;;;;;;;8.45;1.65;;;16.20;1.00;;;;;;5093553;28;20119;-34
2023/03/22 07:26:31;;;;;;;5.18;0.85;;;16.20;1.00;;;;;;5094157;28;20068;-34
2023/03/22 07:28:59;;;;;;;10.15;2.47;;;16.20;1.00;;;;;;5094006;28;20052;-34
2023/03/22 07:31:30;;;;;;;8.00;1.30;;;16.20;1.00;;;;;;5093871;28;20491;-34
2023/03/22 07:34:03;;;;;;;5.55;1.83;;;16.20;1.00;;;;;;5093337;28;20040;-34
2023/03/22 07:36:37;;;;;;;7.18;1.33;;;16.20;1.00;;;;;;5093833;28;20498;-34
2023/03/22 07:39:07;;;;;;;16.83;3.00;;;16.20;1.00;;;;;;5093819;28;20051;-34
2023/03/22 07:41:39;;;;;;;10.60;1.90;;;16.20;1.00;;;;;;5094121;28;20079;-34
2023/03/22 07:44:25;;;;;;;6.30;1.52;;;16.20;1.00;;;;;;5094343;28;20552;-35
2023/03/22 07:47:15;;;;;;;10.68;2.00;;;16.10;1.00;;;;;;5075033;28;20063;-34
2023/03/22 07:50:13;;;;;;;7.60;2.05;;;16.10;1.00;;;;;;5093328;28;20040;-34
2023/03/22 07:52:43;;;;;;;9.50;2.00;;;16.20;1.00;;;;;;5092746;28;20040;-34
2023/03/22 07:55:13;;;;;;;6.20;1.50;;;16.10;1.00;;;;;;5093512;28;20453;-35
2023/03/22 07:57:40;;;;;;;6.45;1.85;;;16.10;1.00;;;;;;5093485;28;20423;-34
2023/03/22 08:00:09;;;;;;;5.00;1.67;;;16.10;1.00;;;;;;5093168;28;20499;-34
2023/03/22 08:02:44;;;;;;;5.70;2.10;;;16.10;1.00;;;;;;5092635;28;20093;-34
2023/03/22 08:05:22;;;;;;;4.68;1.48;;;16.10;1.00;;;;;;5092402;28;20180;-35
2023/03/22 08:07:56;;;;;;;4.38;1.27;;;16.10;1.00;;;;;;5093329;28;20115;-34
2023/03/22 08:10:23;;;;;;;7.07;1.30;;;16.10;1.00;;;;;;5093214;28;20406;-33
2023/03/22 08:12:50;;;;;;;10.23;2.05;;;16.10;1.00;;;;;;5092397;28;20040;-34
2023/03/22 08:15:21;;;;;;;6.15;1.45;;;16.10;1.00;;;;;;5093085;28;20044;-34
2023/03/22 08:17:51;;;;;;;7.07;1.33;;;16.10;1.00;;;;;;5093087;28;20044;-35
2023/03/22 08:20:28;;;;;;;8.25;1.55;;;16.10;1.00;;;;;;5093163;28;20052;-35
2023/03/22 08:23:00;;;;;;;9.07;1.70;;;16.10;1.00;;;;;;5092308;28;20097;-35
2023/03/22 08:25:27;;;;;;;5.65;1.73;;;16.10;1.00;;;;;;5094066;28;20407;-35
2023/03/22 08:28:02;;;;;;;9.88;1.83;;;16.10;1.00;;;;;;5092880;28;20048;-34
2023/03/22 08:30:29;;;;;;;7.63;1.65;;;16.10;1.00;;;;;;5092724;28;20040;-33
2023/03/22 08:32:56;;;;;;;3.90;1.05;;;16.10;1.00;;;;;;5092118;28;20052;-34
2023/03/22 08:35:23;;;;;;;6.70;2.03;;;16.10;1.00;;;;;;5092708;28;20043;-33
2023/03/22 08:37:54;;;;;;;6.50;1.38;;;16.10;1.00;;;;;;5092858;28;20050;-34
2023/03/22 08:40:24;;;;;;;7.30;2.30;;;16.10;1.00;;;;;;5092780;28;20052;-34
2023/03/22 08:42:56;;;;;;;7.53;1.95;;;16.10;1.00;;;;;;5092036;28;20495;-34
2023/03/22 08:45:23;;;;;;;7.03;1.73;;;16.00;1.00;;;;;;5092362;28;20092;-34
2023/03/22 08:47:58;;;;;;;7.70;1.38;;;16.00;1.00;;;;;;5092622;28;20135;-35
2023/03/22 08:50:26;;;;;;;8.70;1.42;;;16.00;1.00;;;;;;5092375;28;20056;-35
2023/03/22 08:53:05;;;;;;;5.78;2.28;;;16.00;1.00;;;;;;5091763;28;20055;-35
2023/03/22 08:55:36;;;;;;;5.75;1.80;;;16.00;1.00;;;;;;5092337;28;20134;-35
2023/03/22 08:58:13;;;;;;;8.50;2.80;;;16.00;1.00;;;;;;5093848;28;20048;-35
2023/03/22 09:00:49;;;;;;;6.25;1.60;;;16.00;1.00;;;;;;5092345;28;20144;-35
2023/03/22 09:03:45;;;;;;;8.40;1.88;;;16.00;1.00;;;;;;5083464;28;20093;-35
2023/03/22 09:06:12;;;;;;;10.90;1.95;;;16.00;1.00;;;;;;5092014;28;20476;-35
2023/03/22 09:08:41;;;;;;;4.68;1.48;;;16.00;1.00;;;;;;5092248;28;20528;-35
2023/03/22 09:11:12;;;;;;;11.38;1.63;;;16.00;1.00;;;;;;5091944;28;20384;-35
2023/03/22 09:13:41;;;;;;;5.95;1.15;;;16.00;1.00;;;;;;5091610;28;20066;-33
2023/03/22 09:16:08;;;;;;;9.73;1.52;;;16.00;1.00;;;;;;5091838;28;20403;-34
2023/03/22 09:18:36;;;;;;;5.53;1.42;;;16.00;1.00;;;;;;5092062;28;20048;-34
2023/03/22 09:21:10;;;;;;;4.65;1.38;;;16.00;1.00;;;;;;5091998;28;20044;-34
2023/03/22 09:23:49;;;;;;;8.05;1.73;;;16.00;1.00;;;;;;5091111;28;20047;-34
2023/03/22 09:26:18;;;;;;;7.15;2.20;;;16.00;1.00;;;;;;5091905;28;20544;-34
2023/03/22 09:28:49;;;;;;;4.88;2.35;;;16.00;1.00;;;;;;5091778;28;20136;-34
2023/03/22 09:31:15;;;;;;;15.45;1.70;;;16.00;1.00;;;;;;5091589;28;20127;-34
2023/03/22 09:33:48;;;;;;;11.93;2.90;;;15.90;1.00;;;;;;5091069;28;20131;-33
2023/03/22 09:36:15;;;;;;;5.25;1.50;;;16.00;1.00;;;;;;5091385;28;20036;-33
2023/03/22 09:38:42;;;;;;;6.82;1.55;;;15.90;1.00;;;;;;5091611;28;20118;-34
2023/03/22 09:41:35;;;;;;;7.22;1.42;;;15.90;1.00;;;;;;5091469;28;20056;-34
2023/03/22 09:44:07;;;;;;;7.23;1.40;;;16.00;1.00;;;;;;5090851;28;20052;-34
2023/03/22 09:46:40;;;;;;;12.27;1.45;;;15.90;1.00;;;;;;5085847;22;20317;-37
2023/03/22 09:49:19;;;;;;;9.30;1.77;;;15.90;1.00;;;;;;5066025;28;20078;-37
2023/03/22 09:51:49;;;;;;;7.72;1.65;;;15.90;1.00;;;;;;5072305;28;20045;-37
2023/03/22 09:54:32;;;;;;;11.45;1.90;;;15.90;1.00;;;;;;5071560;28;20442;-37
2023/03/22 09:57:03;;;;;;;5.78;1.88;;;15.90;1.00;;;;;;5053329;28;20041;-36
2023/03/22 09:59:52;;;;;;;13.43;2.08;;;15.90;1.00;;;;;;5052135;28;20106;-36
2023/03/22 10:03:00;;;;;;;6.93;1.35;;;15.90;1.00;;;;;;5051795;28;20033;-37
2023/03/22 10:06:23;;;;;;;7.82;1.50;;;15.90;1.00;;;;;;5047059;28;20045;-37
2023/03/22 10:09:44;;;;;;;9.23;2.17;;;15.90;1.00;;;;;;5051870;28;20068;-36
2023/03/22 10:13:04;;;;;;;5.80;1.75;;;15.90;1.00;;;;;;5019561;28;20061;-36
2023/03/22 10:15:59;;;;;;;7.20;1.50;;;15.90;1.00;;;;;;5027301;28;20155;-37
2023/03/22 10:18:38;;;;;;;8.80;2.70;;;15.90;1.00;;;;;;5052010;28;20527;-36
2023/03/22 10:21:17;;;;;;;10.23;2.22;;;15.90;1.00;;;;;;5051953;28;20041;-36
2023/03/22 10:24:27;;;;;;;6.68;1.52;;;15.90;1.00;;;;;;5051094;28;20037;-36
2023/03/22 10:27:19;;;;;;;6.85;1.45;;;15.90;1.00;;;;;;5050948;28;20447;-36
2023/03/22 10:30:38;;;;;;;4.37;1.30;;;15.80;1.00;;;;;;5050375;28;20171;-37
2023/03/22 10:33:29;;;;;;;8.65;1.40;;;15.80;1.00;;;;;;5050971;28;20041;-37
2023/03/22 10:35:56;;;;;;;6.43;1.80;;;15.80;1.00;;;;;;5051820;28;20041;-37
2023/03/22 10:38:26;;;;;;;7.07;1.67;;;15.80;1.00;;;;;;5050613;28;20045;-37
2023/03/22 10:40:57;;;;;;;7.60;1.65;;;15.80;1.00;;;;;;5051726;28;20504;-37
2023/03/22 10:43:35;;;;;;;5.97;1.92;;;15.90;1.00;;;;;;5050976;28;20120;-37
2023/03/22 10:46:07;;;;;;;9.05;1.70;;;15.90;1.00;;;;;;5051563;28;20393;-36
2023/03/22 10:48:46;;;;;;;9.55;1.42;;;15.80;1.00;;;;;;5051768;28;20036;-37
2023/03/22 10:51:34;;;;;;;6.03;1.52;;;15.90;1.00;;;;;;5051582;28;20045;-37
2023/03/22 10:54:02;;;;;;;6.70;1.83;;;15.80;1.00;;;;;;5050990;28;20484;-37
2023/03/22 10:56:29;;;;;;;11.27;2.83;;;15.90;1.00;;;;;;5051536;28;20102;-37
2023/03/22 10:58:56;;;;;;;5.10;1.42;;;15.80;1.00;;;;;;5051737;28;20415;-37
2023/03/22 11:01:26;;;;;;;5.75;1.77;;;15.90;1.00;;;;;;5051571;28;20562;-37
2023/03/22 11:03:59;;;;;;;7.85;1.85;;;15.90;1.00;;;;;;5050553;28;20048;-37
2023/03/22 11:06:28;;;;;;;;;;;15.90;1.00;;;;;;5051805;28;20083;-37
2023/03/22 11:09:18;;;;;;;6.53;1.45;;;15.90;1.00;;;;;;5051617;28;19967;-37
2023/03/22 11:11:54;;;;;;;8.75;2.10;;;15.80;1.00;;;;;;5051356;28;20041;-37
2023/03/22 11:14:27;;;;;;;5.45;1.67;;;15.80;1.00;;;;;;5050600;28;20569;-37
2023/03/22 11:17:07;;;;;;;9.07;2.13;;;15.80;1.00;;;;;;5051452;28;20480;-37
2023/03/22 11:19:36;;;;;;;16.08;2.15;;;15.80;1.00;;;;;;5051558;28;20041;-36
2023/03/22 11:22:23;;;;;;;6.15;1.83;;;15.80;1.00;;;;;;5051382;28;20056;-36
2023/03/22 11:24:58;;;;;;;9.38;2.38;;;15.80;1.00;;;;;;5050799;28;20080;-36
2023/03/22 11:27:32;;;;;;;8.05;1.77;;;15.80;1.00;;;;;;5051268;28;20047;-37
2023/03/22 11:30:21;;;;;;;4.43;1.45;;;15.80;1.00;;;;;;5051377;28;20404;-37
2023/03/22 11:32:48;;;;;;;6.90;1.55;;;15.80;1.00;;;;;;5050577;28;20072;-37
2023/03/22 11:35:22;;;;;;;7.25;2.25;;;15.80;1.00;;;;;;5051060;28;20099;-36
2023/03/22 11:37:55;;;;;;;7.13;1.42;;;15.80;1.00;;;;;;5051256;28;20041;-36
2023/03/22 11:40:25;;;;;;;9.50;2.20;;;15.80;1.00;;;;;;5052992;28;20072;-36
2023/03/22 11:43:13;;;;;;;5.78;2.05;;;15.80;1.00;;;;;;5053935;28;20045;-37
2023/03/22 11:45:42;;;;;;;6.07;1.73;;;15.80;1.00;;;;;;5054544;28;20056;-37
2023/03/22 11:48:14;;;;;;;12.10;1.83;;;15.80;1.00;;;;;;5054937;28;20390;-37
2023/03/22 11:50:43;;;;;;;7.90;1.73;;;15.80;1.00;;;;;;5054905;28;20091;-37
2023/03/22 11:53:16;;;;;;;8.35;1.85;;;15.80;1.00;;;;;;5054231;28;20527;-36
2023/03/22 11:55:44;;;;;;;;;;;15.80;1.00;;;;;;5054945;28;20064;-37
2023/03/22 11:58:41;;;;;;;8.90;1.17;;;15.80;1.00;;;;;;5054390;28;20005;-37
2023/03/22 12:01:52;;;;;;;9.45;2.08;;;15.80;1.00;;;;;;5054518;28;20055;-37
2023/03/22 12:04:25;;;;;;;6.70;1.77;;;15.80;1.00;;;;;;5020084;28;20071;-37
2023/03/22 12:06:56;;;;;;;8.18;1.35;;;15.80;1.00;;;;;;5054352;28;20455;-36
2023/03/22 12:09:35;;;;;;;9.05;1.50;;;15.80;1.00;;;;;;5053084;28;20053;-36
2023/03/22 12:12:04;;;;;;;6.50;1.58;;;15.80;1.00;;;;;;5054400;28;20037;-37
2023/03/22 12:14:53;;;;;;;6.13;1.58;;;15.80;1.00;;;;;;5053824;28;20498;-36
2023/03/22 12:17:49;;;;;;;7.30;2.20;;;15.80;1.00;;;;;;5054135;28;20033;-36
2023/03/22 12:21:03;;;;;;;9.07;1.45;;;15.80;1.00;;;;;;5048789;28;20060;-36
2023/03/22 12:23:35;;;;;;;8.52;1.92;;;15.80;1.00;;;;;;4991595;28;20089;-37
2023/03/22 12:26:10;;;;;;;9.77;2.53;;;15.80;1.00;;;;;;5043968;28;20053;-37
2023/03/22 12:28:55;;;;;;;8.05;1.55;;;15.80;1.00;;;;;;5054075;28;20037;-37
2023/03/22 12:31:30;;;;;;;12.00;2.45;;;15.80;1.00;;;;;;5053730;28;20087;-37
2023/03/22 12:34:04;;;;;;;6.70;2.03;;;15.80;1.00;;;;;;5053256;28;20068;-37
2023/03/22 12:36:41;;;;;;;8.07;1.75;;;15.80;1.00;;;;;;5053579;28;20389;-37
2023/03/22 12:39:18;;;;;;;5.75;1.77;;;15.80;1.00;;;;;;5053640;28;20052;-37
2023/03/22 12:41:49;;;;;;;5.50;2.08;;;15.80;1.00;;;;;;5053634;28;20041;-37
2023/03/22 12:44:28;;;;;;;7.80;1.90;;;15.80;1.00;;;;;;5052727;28;20469;-36
2023/03/22 12:47:02;;;;;;;6.05;2.17;;;15.80;1.00;;;;;;5053670;28;20095;-36
2023/03/22 12:49:39;;;;;;;11.45;2.30;;;15.80;1.00;;;;;;5053585;28;20056;-37
2023/03/22 12:52:34;;;;;;;9.70;2.38;;;15.80;1.00;;;;;;5053056;28;20041;-37
2023/03/22 12:55:32;;;;;;;8.85;2.20;;;15.80;1.00;;;;;;5053362;28;20510;-36
2023/03/22 12:57:59;;;;;;;7.13;2.25;;;15.80;1.00;;;;;;5053422;28;20037;-36
2023/03/22 13:00:38;;;;;;;9.00;2.20;;;15.80;1.00;;;;;;5053017;28;20041;-37
2023/03/22 13:03:27;;;;;;;9.15;3.05;;;15.70;1.00;;;;;;5052596;28;20040;-37
2023/03/22 13:06:06;;;;;;;6.38;1.27;;;15.80;1.00;;;;;;5053192;28;20095;-37
2023/03/22 13:09:16;;;;;;;7.57;1.45;;;15.80;1.00;;;;;;5053215;28;20059;-37
2023/03/22 13:11:45;;;;;;;10.20;2.10;;;15.80;1.00;;;;;;5053077;28;20045;-36
2023/03/22 13:14:56;;;;;;;9.07;1.88;;;15.70;1.00;;;;;;5052273;28;20485;-37
2023/03/22 13:17:23;;;;;;;8.45;2.90;;;15.80;1.00;;;;;;5024697;28;20439;-37
2023/03/22 13:20:06;;;;;;;7.00;1.73;;;15.70;1.00;;;;;;5052996;28;20041;-36
2023/03/22 13:22:36;;;;;;;7.60;2.10;;;15.70;1.00;;;;;;5052581;28;20040;-37
2023/03/22 13:25:11;;;;;;;8.70;1.88;;;15.70;1.00;;;;;;5052780;28;20076;-37
2023/03/22 13:27:44;;;;;;;6.82;1.40;;;15.70;1.00;;;;;;5052812;28;20065;-36
2023/03/22 13:30:21;;;;;;;11.00;1.30;;;15.70;1.00;;;;;;5052791;28;20132;-37
2023/03/22 13:32:56;;;;;;;7.15;1.55;;;15.80;1.00;;;;;;5052053;28;20045;-37
2023/03/22 13:35:26;;;;;;;6.07;1.35;;;15.70;1.00;;;;;;5052702;28;20500;-37
2023/03/22 13:38:01;;;;;;;7.03;1.90;;;15.70;1.00;;;;;;5052699;28;20044;-36